Antimony, Utah
Current Conditions -  °F | °C
As of 1:53 PM on Saturday 25 Oct 2014 (Local Time) from KBCE Reporting Station
Clear Clear  
Wind Chill: 63°   Ceiling: Unl
Heat Index: 63°   Visibility: 10mi
Dew Point: 36°   Wind: 16mph
Humidity: 37%   Direction: 160°SSE
Pressure: 30.3"   Gusts: 28mph
Location:  38.12°N, 112°W
Report Text: KBCE 251953Z AUTO 16014G24KT 10SM CLR 17/02 A3030 RMK AO2 SLP184 T01720022 TSNO
Loading
Personal Weather Stations






























Interactive Weather Map New forecast layout! Learn more

10-Day Weather Forecast

Advertisements
Track Severe Weather on mobile